Ashley, North Dakota
Current Conditions -  °F | °C
As of 4:35 AM on Saturday 01 Nov 2014 (Local Time) from K7L2 Reporting Station
Clear Clear  
Wind Chill: 21°   Ceiling: Unl
Heat Index: 32°   Visibility: 10mi
Dew Point: 18°   Wind: 17mph
Humidity: 55%   Direction: 140°SE
Pressure: 30"   Gusts: 24mph
Location:  46.03°N, 99.37°W
Report Text: K7L2 010935Z AUTO 14015G21KT 10SM CLR 00/M08 A3000 RMK AO2 PWINO PNO
Loading
Personal Weather Stations






























Interactive Weather Map
Tropical Storm Tracking
New forecast layout! Learn more

10-Day Weather Forecast

Advertisements
Track Severe Weather on mobile